sensor_id;sensor_type;location;lat;lon;timestamp;pressure;altitude;pressure_sealevel;temperature;humidity
79366;BME280;68833;53.160;17.920;2023-10-08T00:00:48;100569.20;;;11.95;75.88
79366;BME280;68833;53.160;17.920;2023-10-08T00:03:39;100582.35;;;11.97;76.03
79366;BME280;68833;53.160;17.920;2023-10-08T00:06:07;100594.66;;;11.99;76.00
79366;BME280;68833;53.160;17.920;2023-10-08T00:08:38;100593.42;;;12.00;75.88
79366;BME280;68833;53.160;17.920;2023-10-08T00:11:04;100601.52;;;12.00;75.82
79366;BME280;68833;53.160;17.920;2023-10-08T00:13:37;100596.90;;;12.02;75.89
79366;BME280;68833;53.160;17.920;2023-10-08T00:16:12;100595.30;;;12.04;75.86
79366;BME280;68833;53.160;17.920;2023-10-08T00:18:48;100596.52;;;12.05;75.77
79366;BME280;68833;53.160;17.920;2023-10-08T00:21:20;100604.63;;;12.04;75.57
79366;BME280;68833;53.160;17.920;2023-10-08T00:23:52;100587.23;;;12.02;75.54
79366;BME280;68833;53.160;17.920;2023-10-08T00:26:23;100580.76;;;12.00;75.54
79366;BME280;68833;53.160;17.920;2023-10-08T00:29:04;100580.41;;;11.98;75.34
79366;BME280;68833;53.160;17.920;2023-10-08T00:31:44;100570.78;;;11.95;75.02
79366;BME280;68833;53.160;17.920;2023-10-08T00:34:12;100577.86;;;11.92;74.78
79366;BME280;68833;53.160;17.920;2023-10-08T00:36:44;100588.83;;;11.88;74.42
79366;BME280;68833;53.160;17.920;2023-10-08T00:39:12;100607.37;;;11.84;74.31
79366;BME280;68833;53.160;17.920;2023-10-08T00:41:49;100618.33;;;11.81;74.25
79366;BME280;68833;53.160;17.920;2023-10-08T00:44:16;100627.52;;;11.77;74.04
79366;BME280;68833;53.160;17.920;2023-10-08T00:46:49;100631.63;;;11.74;74.03
79366;BME280;68833;53.160;17.920;2023-10-08T00:49:21;100641.69;;;11.72;73.57
79366;BME280;68833;53.160;17.920;2023-10-08T00:51:49;100645.57;;;11.71;73.92
79366;BME280;68833;53.160;17.920;2023-10-08T00:54:29;100645.61;;;11.68;73.36
79366;BME280;68833;53.160;17.920;2023-10-08T00:57:00;100649.00;;;11.65;73.65
79366;BME280;68833;53.160;17.920;2023-10-08T00:59:32;100641.83;;;11.63;73.56
79366;BME280;68833;53.160;17.920;2023-10-08T01:02:10;100628.88;;;11.57;73.47
79366;BME280;68833;53.160;17.920;2023-10-08T01:04:41;100637.71;;;11.54;73.29
79366;BME280;68833;53.160;17.920;2023-10-08T01:07:11;100638.80;;;11.53;73.17
79366;BME280;68833;53.160;17.920;2023-10-08T01:09:39;100640.23;;;11.51;73.06
79366;BME280;68833;53.160;17.920;2023-10-08T01:14:53;100646.48;;;11.44;72.77
79366;BME280;68833;53.160;17.920;2023-10-08T01:17:24;100650.39;;;11.40;72.62
79366;BME280;68833;53.160;17.920;2023-10-08T01:19:53;100659.41;;;11.36;72.49
79366;BME280;68833;53.160;17.920;2023-10-08T01:22:42;100658.42;;;11.30;72.41
79366;BME280;68833;53.160;17.920;2023-10-08T01:25:08;100658.67;;;11.25;72.02
79366;BME280;68833;53.160;17.920;2023-10-08T01:27:36;100655.56;;;11.21;71.98
79366;BME280;68833;53.160;17.920;2023-10-08T01:30:03;100664.01;;;11.19;72.26
79366;BME280;68833;53.160;17.920;2023-10-08T01:32:46;100673.70;;;11.18;72.13
79366;BME280;68833;53.160;17.920;2023-10-08T01:35:12;100682.34;;;11.16;71.85
79366;BME280;68833;53.160;17.920;2023-10-08T01:37:52;100689.75;;;11.13;71.84
79366;BME280;68833;53.160;17.920;2023-10-08T01:40:19;100695.77;;;11.11;71.66
79366;BME280;68833;53.160;17.920;2023-10-08T01:42:45;100704.95;;;11.06;71.53
79366;BME280;68833;53.160;17.920;2023-10-08T01:45:12;100715.73;;;11.01;71.60
79366;BME280;68833;53.160;17.920;2023-10-08T01:47:46;100711.02;;;10.97;71.64
79366;BME280;68833;53.160;17.920;2023-10-08T01:50:18;100713.34;;;10.93;71.31
79366;BME280;68833;53.160;17.920;2023-10-08T01:52:50;100719.50;;;10.90;71.07
79366;BME280;68833;53.160;17.920;2023-10-08T01:55:20;100719.55;;;10.88;70.95
79366;BME280;68833;53.160;17.920;2023-10-08T01:57:49;100725.73;;;10.85;70.60
79366;BME280;68833;53.160;17.920;2023-10-08T02:00:17;100741.23;;;10.80;70.53
79366;BME280;68833;53.160;17.920;2023-10-08T02:02:47;100741.96;;;10.76;70.51
79366;BME280;68833;53.160;17.920;2023-10-08T02:05:13;100739.37;;;10.72;70.37
79366;BME280;68833;53.160;17.920;2023-10-08T02:07:45;100734.13;;;10.68;70.19
79366;BME280;68833;53.160;17.920;2023-10-08T02:10:11;100735.74;;;10.64;70.13
79366;BME280;68833;53.160;17.920;2023-10-08T02:12:37;100738.39;;;10.63;70.35
79366;BME280;68833;53.160;17.920;2023-10-08T02:15:05;100746.98;;;10.65;70.13
79366;BME280;68833;53.160;17.920;2023-10-08T02:17:34;100751.59;;;10.63;70.28
79366;BME280;68833;53.160;17.920;2023-10-08T02:20:01;100754.91;;;10.63;70.34
79366;BME280;68833;53.160;17.920;2023-10-08T02:22:31;100764.59;;;10.59;69.82
79366;BME280;68833;53.160;17.920;2023-10-08T02:25:01;100767.27;;;10.55;69.97
79366;BME280;68833;53.160;17.920;2023-10-08T02:27:29;100772.02;;;10.52;70.32
79366;BME280;68833;53.160;17.920;2023-10-08T02:29:55;100774.85;;;10.49;69.82
79366;BME280;68833;53.160;17.920;2023-10-08T02:32:22;100773.13;;;10.46;69.71
79366;BME280;68833;53.160;17.920;2023-10-08T02:34:49;100775.42;;;10.43;69.71
79366;BME280;68833;53.160;17.920;2023-10-08T02:37:17;100779.48;;;10.39;69.16
79366;BME280;68833;53.160;17.920;2023-10-08T02:39:43;100782.67;;;10.34;68.30
79366;BME280;68833;53.160;17.920;2023-10-08T02:42:10;100783.92;;;10.28;68.44
79366;BME280;68833;53.160;17.920;2023-10-08T02:44:40;100790.98;;;10.21;68.30
79366;BME280;68833;53.160;17.920;2023-10-08T02:47:09;100801.54;;;10.16;68.41
79366;BME280;68833;53.160;17.920;2023-10-08T02:49:46;100803.15;;;10.12;68.28
79366;BME280;68833;53.160;17.920;2023-10-08T02:52:18;100815.45;;;10.07;68.26
79366;BME280;68833;53.160;17.920;2023-10-08T02:54:44;100823.56;;;10.00;68.22
79366;BME280;68833;53.160;17.920;2023-10-08T02:57:11;100826.21;;;9.95;68.17
79366;BME280;68833;53.160;17.920;2023-10-08T02:59:40;100832.38;;;9.91;67.77
79366;BME280;68833;53.160;17.920;2023-10-08T03:02:12;100835.73;;;9.87;67.76
79366;BME280;68833;53.160;17.920;2023-10-08T03:04:46;100837.66;;;9.84;68.01
79366;BME280;68833;53.160;17.920;2023-10-08T03:07:15;100842.93;;;9.82;67.99
79366;BME280;68833;53.160;17.920;2023-10-08T03:09:50;100843.99;;;9.80;68.34
79366;BME280;68833;53.160;17.920;2023-10-08T03:12:18;100849.77;;;9.78;68.10
79366;BME280;68833;53.160;17.920;2023-10-08T03:14:44;100852.60;;;9.75;68.01
79366;BME280;68833;53.160;17.920;2023-10-08T03:17:30;100855.42;;;9.68;67.71
79366;BME280;68833;53.160;17.920;2023-10-08T03:20:03;100861.06;;;9.59;67.17
79366;BME280;68833;53.160;17.920;2023-10-08T03:22:59;100867.05;;;9.50;67.39
79366;BME280;68833;53.160;17.920;2023-10-08T03:25:25;100868.79;;;9.48;67.41
79366;BME280;68833;53.160;17.920;2023-10-08T03:27:52;100878.09;;;9.45;66.80
79366;BME280;68833;53.160;17.920;2023-10-08T03:30:20;100882.84;;;9.40;66.62
79366;BME280;68833;53.160;17.920;2023-10-08T03:32:48;100888.45;;;9.38;67.01
79366;BME280;68833;53.160;17.920;2023-10-08T03:35:21;100890.73;;;9.37;66.82
79366;BME280;68833;53.160;17.920;2023-10-08T03:37:54;100895.29;;;9.34;66.75
79366;BME280;68833;53.160;17.920;2023-10-08T03:40:40;100898.45;;;9.30;66.78
79366;BME280;68833;53.160;17.920;2023-10-08T03:43:09;100901.23;;;9.25;66.39
79366;BME280;68833;53.160;17.920;2023-10-08T03:46:02;100899.85;;;9.16;65.76
79366;BME280;68833;53.160;17.920;2023-10-08T03:48:32;100897.22;;;9.10;65.95
79366;BME280;68833;53.160;17.920;2023-10-08T03:51:03;100905.10;;;9.07;66.10
79366;BME280;68833;53.160;17.920;2023-10-08T03:53:32;100914.21;;;9.02;65.83
79366;BME280;68833;53.160;17.920;2023-10-08T03:56:08;100913.33;;;8.98;66.40
79366;BME280;68833;53.160;17.920;2023-10-08T03:58:34;100916.48;;;8.93;66.32
79366;BME280;68833;53.160;17.920;2023-10-08T04:01:07;100921.55;;;8.89;65.87
79366;BME280;68833;53.160;17.920;2023-10-08T04:03:37;100921.02;;;8.87;66.65
79366;BME280;68833;53.160;17.920;2023-10-08T04:06:29;100920.84;;;8.89;66.81
79366;BME280;68833;53.160;17.920;2023-10-08T04:09:05;100925.07;;;8.93;66.98
79366;BME280;68833;53.160;17.920;2023-10-08T04:11:39;100932.23;;;8.96;66.51
79366;BME280;68833;53.160;17.920;2023-10-08T04:14:28;100935.93;;;8.97;66.99
79366;BME280;68833;53.160;17.920;2023-10-08T04:16:54;100942.59;;;8.99;66.82
79366;BME280;68833;53.160;17.920;2023-10-08T04:19:22;100948.20;;;8.99;67.05
79366;BME280;68833;53.160;17.920;2023-10-08T04:21:56;100948.04;;;9.01;67.17
79366;BME280;68833;53.160;17.920;2023-10-08T04:24:23;100951.70;;;9.01;67.26
79366;BME280;68833;53.160;17.920;2023-10-08T04:27:02;100958.54;;;9.00;67.23
79366;BME280;68833;53.160;17.920;2023-10-08T04:29:35;100958.71;;;8.99;67.28
79366;BME280;68833;53.160;17.920;2023-10-08T04:32:04;100958.19;;;8.97;67.47
79366;BME280;68833;53.160;17.920;2023-10-08T04:34:34;100958.88;;;8.96;67.28
79366;BME280;68833;53.160;17.920;2023-10-08T04:37:01;100959.55;;;8.91;67.08
79366;BME280;68833;53.160;17.920;2023-10-08T04:39:29;100961.14;;;8.88;67.30
79366;BME280;68833;53.160;17.920;2023-10-08T04:42:01;100967.80;;;8.86;67.07
79366;BME280;68833;53.160;17.920;2023-10-08T04:44:38;100970.59;;;8.85;66.72
79366;BME280;68833;53.160;17.920;2023-10-08T04:47:06;100976.89;;;8.82;66.71
79366;BME280;68833;53.160;17.920;2023-10-08T04:49:35;100980.72;;;8.79;66.82
79366;BME280;68833;53.160;17.920;2023-10-08T04:52:07;100984.75;;;8.74;66.58
79366;BME280;68833;53.160;17.920;2023-10-08T04:54:44;100989.98;;;8.70;66.50
79366;BME280;68833;53.160;17.920;2023-10-08T04:57:18;100993.81;;;8.65;66.72
79366;BME280;68833;53.160;17.920;2023-10-08T04:59:48;100995.20;;;8.60;66.95
79366;BME280;68833;53.160;17.920;2023-10-08T05:02:16;100992.38;;;8.56;66.84
79366;BME280;68833;53.160;17.920;2023-10-08T05:05:05;100997.44;;;8.50;66.78
79366;BME280;68833;53.160;17.920;2023-10-08T05:07:37;101005.96;;;8.45;66.49
79366;BME280;68833;53.160;17.920;2023-10-08T05:10:14;101005.74;;;8.38;66.69
79366;BME280;68833;53.160;17.920;2023-10-08T05:12:53;101019.71;;;8.31;66.40
79366;BME280;68833;53.160;17.920;2023-10-08T05:15:28;101027.54;;;8.23;66.48
79366;BME280;68833;53.160;17.920;2023-10-08T05:18:08;101031.86;;;8.15;66.09
79366;BME280;68833;53.160;17.920;2023-10-08T05:20:50;101033.54;;;8.05;65.93
79366;BME280;68833;53.160;17.920;2023-10-08T05:23:18;101037.70;;;7.99;66.28
79366;BME280;68833;53.160;17.920;2023-10-08T05:25:53;101047.46;;;7.95;66.07
79366;BME280;68833;53.160;17.920;2023-10-08T05:28:33;101051.63;;;7.90;66.01
79366;BME280;68833;53.160;17.920;2023-10-08T05:31:14;101053.70;;;7.86;66.49
79366;BME280;68833;53.160;17.920;2023-10-08T05:33:41;101060.67;;;7.85;66.79
79366;BME280;68833;53.160;17.920;2023-10-08T05:36:30;101070.81;;;7.82;66.56
79366;BME280;68833;53.160;17.920;2023-10-08T05:39:17;101083.00;;;7.78;66.48
79366;BME280;68833;53.160;17.920;2023-10-08T05:42:01;101090.31;;;7.74;66.77
79366;BME280;68833;53.160;17.920;2023-10-08T05:44:57;101094.66;;;7.70;66.56
79366;BME280;68833;53.160;17.920;2023-10-08T05:47:36;101094.45;;;7.67;66.99
79366;BME280;68833;53.160;17.920;2023-10-08T05:50:03;101094.77;;;7.65;66.93
79366;BME280;68833;53.160;17.920;2023-10-08T05:52:45;101099.98;;;7.62;66.93
79366;BME280;68833;53.160;17.920;2023-10-08T05:55:25;101105.26;;;7.64;67.09
79366;BME280;68833;53.160;17.920;2023-10-08T05:57:54;101114.38;;;7.67;67.10
79366;BME280;68833;53.160;17.920;2023-10-08T06:00:44;101118.78;;;7.70;67.65
79366;BME280;68833;53.160;17.920;2023-10-08T06:03:17;101127.40;;;7.75;67.00
79366;BME280;68833;53.160;17.920;2023-10-08T06:06:05;101129.16;;;7.78;67.41
79366;BME280;68833;53.160;17.920;2023-10-08T06:08:38;101133.74;;;7.81;67.06
79366;BME280;68833;53.160;17.920;2023-10-08T06:11:18;101139.70;;;7.82;66.88
79366;BME280;68833;53.160;17.920;2023-10-08T06:14:03;101138.81;;;7.82;66.61
79366;BME280;68833;53.160;17.920;2023-10-08T06:16:44;101146.70;;;7.81;66.51
79366;BME280;68833;53.160;17.920;2023-10-08T06:19:13;101150.17;;;7.79;66.69
79366;BME280;68833;53.160;17.920;2023-10-08T06:21:41;101151.38;;;7.78;66.46
79366;BME280;68833;53.160;17.920;2023-10-08T06:24:09;101154.86;;;7.77;66.44
79366;BME280;68833;53.160;17.920;2023-10-08T06:26:58;101155.73;;;7.77;66.26
79366;BME280;68833;53.160;17.920;2023-10-08T06:29:31;101162.92;;;7.78;65.99
79366;BME280;68833;53.160;17.920;2023-10-08T06:31:58;101169.94;;;7.81;65.70
79366;BME280;68833;53.160;17.920;2023-10-08T06:34:28;101167.19;;;7.84;65.58
79366;BME280;68833;53.160;17.920;2023-10-08T06:36:59;101174.90;;;7.87;65.52
79366;BME280;68833;53.160;17.920;2023-10-08T06:39:27;101181.73;;;7.90;65.50
79366;BME280;68833;53.160;17.920;2023-10-08T06:42:13;101191.56;;;7.91;65.33
79366;BME280;68833;53.160;17.920;2023-10-08T06:44:41;101197.87;;;7.92;64.64
79366;BME280;68833;53.160;17.920;2023-10-08T06:47:13;101206.45;;;7.93;64.98
79366;BME280;68833;53.160;17.920;2023-10-08T06:49:42;101215.38;;;7.93;64.73
79366;BME280;68833;53.160;17.920;2023-10-08T06:52:09;101211.16;;;7.92;64.51
79366;BME280;68833;53.160;17.920;2023-10-08T06:54:39;101216.94;;;7.93;64.16
79366;BME280;68833;53.160;17.920;2023-10-08T06:57:05;101222.18;;;7.92;64.28
79366;BME280;68833;53.160;17.920;2023-10-08T06:59:39;101223.77;;;7.93;63.91
79366;BME280;68833;53.160;17.920;2023-10-08T07:02:08;101228.65;;;7.92;63.99
79366;BME280;68833;53.160;17.920;2023-10-08T07:04:36;101227.79;;;7.94;64.06
79366;BME280;68833;53.160;17.920;2023-10-08T07:07:02;101226.59;;;7.96;63.66
79366;BME280;68833;53.160;17.920;2023-10-08T07:09:28;101235.69;;;7.97;63.87
79366;BME280;68833;53.160;17.920;2023-10-08T07:11:56;101239.90;;;7.97;63.61
79366;BME280;68833;53.160;17.920;2023-10-08T07:14:27;101240.43;;;7.98;63.28
79366;BME280;68833;53.160;17.920;2023-10-08T07:16:55;101245.50;;;7.99;63.36
79366;BME280;68833;53.160;17.920;2023-10-08T07:19:28;101247.08;;;7.99;62.80
79366;BME280;68833;53.160;17.920;2023-10-08T07:22:07;101255.16;;;8.03;63.16
79366;BME280;68833;53.160;17.920;2023-10-08T07:24:44;101256.98;;;8.08;62.70
79366;BME280;68833;53.160;17.920;2023-10-08T07:27:12;101258.94;;;8.12;62.18
79366;BME280;68833;53.160;17.920;2023-10-08T07:29:39;101259.85;;;8.16;62.36
79366;BME280;68833;53.160;17.920;2023-10-08T07:32:06;101267.07;;;8.19;61.86
79366;BME280;68833;53.160;17.920;2023-10-08T07:34:38;101270.59;;;8.22;61.91
79366;BME280;68833;53.160;17.920;2023-10-08T07:37:05;101275.70;;;8.25;62.07
79366;BME280;68833;53.160;17.920;2023-10-08T07:39:37;101276.41;;;8.26;62.19
79366;BME280;68833;53.160;17.920;2023-10-08T07:42:12;101289.05;;;8.31;61.76
79366;BME280;68833;53.160;17.920;2023-10-08T07:44:39;101282.77;;;8.34;61.29
79366;BME280;68833;53.160;17.920;2023-10-08T07:47:06;101284.91;;;8.36;61.65
79366;BME280;68833;53.160;17.920;2023-10-08T07:49:38;101286.16;;;8.39;61.51
79366;BME280;68833;53.160;17.920;2023-10-08T07:52:04;101289.52;;;8.43;61.54
79366;BME280;68833;53.160;17.920;2023-10-08T07:54:32;101284.70;;;8.47;61.50
79366;BME280;68833;53.160;17.920;2023-10-08T07:57:02;101286.30;;;8.52;61.44
79366;BME280;68833;53.160;17.920;2023-10-08T07:59:35;101291.79;;;8.57;61.20
79366;BME280;68833;53.160;17.920;2023-10-08T08:02:09;101292.35;;;8.61;61.20
79366;BME280;68833;53.160;17.920;2023-10-08T08:04:42;101299.20;;;8.65;61.11
79366;BME280;68833;53.160;17.920;2023-10-08T08:07:09;101298.02;;;8.71;60.84
79366;BME280;68833;53.160;17.920;2023-10-08T08:09:54;101305.09;;;8.76;60.96
79366;BME280;68833;53.160;17.920;2023-10-08T08:12:28;101304.25;;;8.81;60.67
79366;BME280;68833;53.160;17.920;2023-10-08T08:14:54;101303.58;;;8.87;60.51
79366;BME280;68833;53.160;17.920;2023-10-08T08:17:21;101303.81;;;8.93;60.06
79366;BME280;68833;53.160;17.920;2023-10-08T08:19:49;101309.29;;;8.99;59.95
79366;BME280;68833;53.160;17.920;2023-10-08T08:22:20;101305.48;;;9.04;59.93
79366;BME280;68833;53.160;17.920;2023-10-08T08:24:50;101308.48;;;9.08;59.83
79366;BME280;68833;53.160;17.920;2023-10-08T08:27:22;101314.48;;;9.14;59.36
79366;BME280;68833;53.160;17.920;2023-10-08T08:29:53;101322.05;;;9.20;59.27
79366;BME280;68833;53.160;17.920;2023-10-08T08:32:22;101325.94;;;9.23;58.99
79366;BME280;68833;53.160;17.920;2023-10-08T08:34:50;101328.77;;;9.28;58.92
79366;BME280;68833;53.160;17.920;2023-10-08T08:37:19;101330.21;;;9.35;59.17
79366;BME280;68833;53.160;17.920;2023-10-08T08:39:48;101328.84;;;9.41;59.35
79366;BME280;68833;53.160;17.920;2023-10-08T08:42:20;101333.10;;;9.48;59.09
79366;BME280;68833;53.160;17.920;2023-10-08T08:44:48;101329.30;;;9.54;58.68
79366;BME280;68833;53.160;17.920;2023-10-08T08:47:17;101331.77;;;9.59;58.55
79366;BME280;68833;53.160;17.920;2023-10-08T08:49:44;101338.27;;;9.65;57.72
79366;BME280;68833;53.160;17.920;2023-10-08T08:52:14;101340.23;;;9.69;57.18
79366;BME280;68833;53.160;17.920;2023-10-08T08:54:41;101343.58;;;9.72;57.07
79366;BME280;68833;53.160;17.920;2023-10-08T08:57:10;101336.77;;;9.77;57.19
79366;BME280;68833;53.160;17.920;2023-10-08T08:59:46;101340.99;;;9.82;57.03
79366;BME280;68833;53.160;17.920;2023-10-08T09:02:14;101346.80;;;9.89;56.76
79366;BME280;68833;53.160;17.920;2023-10-08T09:04:41;101347.36;;;9.95;56.84
79366;BME280;68833;53.160;17.920;2023-10-08T09:07:08;101345.11;;;10.02;56.10
79366;BME280;68833;53.160;17.920;2023-10-08T09:09:34;101352.15;;;10.05;55.36
79366;BME280;68833;53.160;17.920;2023-10-08T09:12:06;101351.45;;;10.08;55.42
79366;BME280;68833;53.160;17.920;2023-10-08T09:14:37;101354.45;;;10.12;54.93
79366;BME280;68833;53.160;17.920;2023-10-08T09:17:06;101354.11;;;10.15;54.65
79366;BME280;68833;53.160;17.920;2023-10-08T09:19:36;101348.66;;;10.17;54.45
79366;BME280;68833;53.160;17.920;2023-10-08T09:22:05;101349.92;;;10.20;54.33
79366;BME280;68833;53.160;17.920;2023-10-08T09:24:33;101356.43;;;10.24;53.93
79366;BME280;68833;53.160;17.920;2023-10-08T09:27:04;101360.13;;;10.27;53.70
79366;BME280;68833;53.160;17.920;2023-10-08T09:29:31;101364.69;;;10.32;53.48
79366;BME280;68833;53.160;17.920;2023-10-08T09:31:59;101361.58;;;10.35;53.17
79366;BME280;68833;53.160;17.920;2023-10-08T09:34:27;101367.74;;;10.37;52.51
79366;BME280;68833;53.160;17.920;2023-10-08T09:36:56;101368.61;;;10.40;52.14
79366;BME280;68833;53.160;17.920;2023-10-08T09:39:23;101362.83;;;10.43;51.81
79366;BME280;68833;53.160;17.920;2023-10-08T09:41:50;101360.91;;;10.47;52.02
79366;BME280;68833;53.160;17.920;2023-10-08T09:44:22;101368.83;;;10.52;52.28
79366;BME280;68833;53.160;17.920;2023-10-08T09:47:07;101369.71;;;10.58;51.79
79366;BME280;68833;53.160;17.920;2023-10-08T09:49:41;101371.31;;;10.63;51.28
79366;BME280;68833;53.160;17.920;2023-10-08T09:52:12;101374.30;;;10.68;51.40
79366;BME280;68833;53.160;17.920;2023-10-08T09:54:59;101375.18;;;10.74;50.86
79366;BME280;68833;53.160;17.920;2023-10-08T09:57:29;101377.82;;;10.79;51.43
79366;BME280;68833;53.160;17.920;2023-10-08T09:59:56;101377.31;;;10.85;50.82
79366;BME280;68833;53.160;17.920;2023-10-08T10:03:56;101383.29;;;10.94;50.49
79366;BME280;68833;53.160;17.920;2023-10-08T10:06:26;101382.40;;;10.94;50.51
79366;BME280;68833;53.160;17.920;2023-10-08T10:08:55;101386.28;;;10.98;50.62
79366;BME280;68833;53.160;17.920;2023-10-08T10:11:27;101385.21;;;11.00;50.56
79366;BME280;68833;53.160;17.920;2023-10-08T10:14:00;101386.45;;;11.00;50.37
79366;BME280;68833;53.160;17.920;2023-10-08T10:16:27;101394.19;;;10.99;50.03
79366;BME280;68833;53.160;17.920;2023-10-08T10:18:57;101391.55;;;10.99;50.06
79366;BME280;68833;53.160;17.920;2023-10-08T10:21:32;101396.48;;;11.00;50.09
79366;BME280;68833;53.160;17.920;2023-10-08T10:23:59;101396.83;;;11.04;49.83
79366;BME280;68833;53.160;17.920;2023-10-08T10:26:34;101397.89;;;11.07;49.62
79366;BME280;68833;53.160;17.920;2023-10-08T10:31:42;101386.45;;;11.17;49.48
79366;BME280;68833;53.160;17.920;2023-10-08T10:34:21;101386.28;;;11.21;49.20
79366;BME280;68833;53.160;17.920;2023-10-08T10:36:51;101383.81;;;11.25;49.35
79366;BME280;68833;53.160;17.920;2023-10-08T10:39:24;101383.29;;;11.27;49.21
79366;BME280;68833;53.160;17.920;2023-10-08T10:41:58;101387.50;;;11.31;49.12
79366;BME280;68833;53.160;17.920;2023-10-08T10:44:30;101388.20;;;11.36;49.24
79366;BME280;68833;53.160;17.920;2023-10-08T10:46:58;101394.17;;;11.43;49.00
79366;BME280;68833;53.160;17.920;2023-10-08T10:49:44;101390.30;;;11.49;47.96
79366;BME280;68833;53.160;17.920;2023-10-08T10:52:26;101395.92;;;11.54;47.90
79366;BME280;68833;53.160;17.920;2023-10-08T10:55:07;101394.49;;;11.60;47.00
79366;BME280;68833;53.160;17.920;2023-10-08T10:57:50;101399.06;;;11.68;46.73
79366;BME280;68833;53.160;17.920;2023-10-08T11:00:42;101399.23;;;11.73;44.80
79366;BME280;68833;53.160;17.920;2023-10-08T11:03:09;101405.55;;;11.75;44.87
79366;BME280;68833;53.160;17.920;2023-10-08T11:05:56;101401.52;;;11.75;45.13
79366;BME280;68833;53.160;17.920;2023-10-08T11:08:26;101410.30;;;11.78;45.53
79366;BME280;68833;53.160;17.920;2023-10-08T11:11:00;101401.33;;;11.82;44.96
79366;BME280;68833;53.160;17.920;2023-10-08T11:13:33;101407.82;;;11.83;43.65
79366;BME280;68833;53.160;17.920;2023-10-08T11:16:08;101412.23;;;11.82;42.81
79366;BME280;68833;53.160;17.920;2023-10-08T11:18:44;101412.06;;;11.82;41.44
79366;BME280;68833;53.160;17.920;2023-10-08T11:21:17;101418.58;;;11.80;41.72
79366;BME280;68833;53.160;17.920;2023-10-08T11:23:50;101414.87;;;11.80;41.45
79366;BME280;68833;53.160;17.920;2023-10-08T11:26:24;101411.70;;;11.81;41.65
79366;BME280;68833;53.160;17.920;2023-10-08T11:29:02;101417.86;;;11.81;41.42
79366;BME280;68833;53.160;17.920;2023-10-08T11:31:31;101419.10;;;11.82;41.04
79366;BME280;68833;53.160;17.920;2023-10-08T11:34:02;101418.56;;;11.82;40.35
79366;BME280;68833;53.160;17.920;2023-10-08T11:36:36;101422.97;;;11.83;40.30
79366;BME280;68833;53.160;17.920;2023-10-08T11:39:23;101426.85;;;11.80;40.01
79366;BME280;68833;53.160;17.920;2023-10-08T11:41:58;101416.29;;;11.78;39.59
79366;BME280;68833;53.160;17.920;2023-10-08T11:44:33;101428.62;;;11.79;39.90
79366;BME280;68833;53.160;17.920;2023-10-08T11:47:03;101426.84;;;11.80;40.00
79366;BME280;68833;53.160;17.920;2023-10-08T11:49:49;101428.25;;;11.81;39.79
79366;BME280;68833;53.160;17.920;2023-10-08T11:52:35;101426.85;;;11.84;40.15
79366;BME280;68833;53.160;17.920;2023-10-08T11:55:02;101429.28;;;11.84;39.82
79366;BME280;68833;53.160;17.920;2023-10-08T11:57:32;101430.89;;;11.81;39.84
79366;BME280;68833;53.160;17.920;2023-10-08T12:00:04;101427.90;;;11.81;40.48
79366;BME280;68833;53.160;17.920;2023-10-08T12:02:48;101426.31;;;11.81;39.63
79366;BME280;68833;53.160;17.920;2023-10-08T12:05:15;101424.73;;;11.81;39.73
79366;BME280;68833;53.160;17.920;2023-10-08T12:07:51;101432.83;;;11.79;40.01
79366;BME280;68833;53.160;17.920;2023-10-08T12:10:20;101431.60;;;11.79;39.78
79366;BME280;68833;53.160;17.920;2023-10-08T12:12:53;101434.77;;;11.80;39.79
79366;BME280;68833;53.160;17.920;2023-10-08T12:15:21;101438.27;;;11.79;39.18
79366;BME280;68833;53.160;17.920;2023-10-08T12:17:48;101440.92;;;11.78;38.73
79366;BME280;68833;53.160;17.920;2023-10-08T12:20:37;101437.76;;;11.77;38.44
79366;BME280;68833;53.160;17.920;2023-10-08T12:23:05;101440.92;;;11.76;38.07
79366;BME280;68833;53.160;17.920;2023-10-08T12:25:32;101443.92;;;11.75;37.48
79366;BME280;68833;53.160;17.920;2023-10-08T12:28:02;101443.92;;;11.74;37.45
79366;BME280;68833;53.160;17.920;2023-10-08T12:30:31;101442.16;;;11.74;37.34
79366;BME280;68833;53.160;17.920;2023-10-08T12:32:58;101447.09;;;11.74;37.66
79366;BME280;68833;53.160;17.920;2023-10-08T12:35:26;101446.04;;;11.74;37.90
79366;BME280;68833;53.160;17.920;2023-10-08T12:37:55;101449.73;;;11.75;38.46
79366;BME280;68833;53.160;17.920;2023-10-08T12:40:21;101452.89;;;11.76;38.30
79366;BME280;68833;53.160;17.920;2023-10-08T12:42:54;101450.09;;;11.77;38.29
79366;BME280;68833;53.160;17.920;2023-10-08T12:45:21;101449.39;;;11.77;38.25
79366;BME280;68833;53.160;17.920;2023-10-08T12:47:48;101449.90;;;11.78;38.04
79366;BME280;68833;53.160;17.920;2023-10-08T12:50:19;101453.77;;;11.77;38.10
79366;BME280;68833;53.160;17.920;2023-10-08T12:52:55;101452.55;;;11.78;38.27
79366;BME280;68833;53.160;17.920;2023-10-08T12:55:22;101459.94;;;11.76;37.44
79366;BME280;68833;53.160;17.920;2023-10-08T12:57:51;101452.02;;;11.75;37.46
79366;BME280;68833;53.160;17.920;2023-10-08T13:00:23;101452.71;;;11.73;37.88
79366;BME280;68833;53.160;17.920;2023-10-08T13:02:52;101448.67;;;11.71;37.93
79366;BME280;68833;53.160;17.920;2023-10-08T13:05:22;101451.85;;;11.70;38.35
79366;BME280;68833;53.160;17.920;2023-10-08T13:07:55;101448.86;;;11.69;38.32
79366;BME280;68833;53.160;17.920;2023-10-08T13:10:22;101447.99;;;11.66;38.68
79366;BME280;68833;53.160;17.920;2023-10-08T13:12:49;101450.10;;;11.66;38.91
79366;BME280;68833;53.160;17.920;2023-10-08T13:15:16;101448.35;;;11.65;38.91
79366;BME280;68833;53.160;17.920;2023-10-08T13:17:42;101441.66;;;11.64;39.09